sensor_id;sensor_type;location;lat;lon;timestamp;pressure;altitude;pressure_sealevel;temperature;humidity
51496;BME280;37572;52.094;4.870;2022-10-16T00:00:52;100850.50;;;14.30;85.48
51496;BME280;37572;52.094;4.870;2022-10-16T00:03:17;100853.91;;;14.25;85.92
51496;BME280;37572;52.094;4.870;2022-10-16T00:05:43;100851.09;;;14.20;85.84
51496;BME280;37572;52.094;4.870;2022-10-16T00:08:12;100850.69;;;14.16;85.81
51496;BME280;37572;52.094;4.870;2022-10-16T00:10:39;100839.88;;;14.16;85.64
51496;BME280;37572;52.094;4.870;2022-10-16T00:13:05;100837.16;;;14.16;85.98
51496;BME280;37572;52.094;4.870;2022-10-16T00:15:33;100845.66;;;14.20;85.50
51496;BME280;37572;52.094;4.870;2022-10-16T00:18:01;100844.13;;;14.24;85.42
51496;BME280;37572;52.094;4.870;2022-10-16T00:20:26;100841.78;;;14.27;85.40
51496;BME280;37572;52.094;4.870;2022-10-16T00:22:52;100842.59;;;14.28;85.97
51496;BME280;37572;52.094;4.870;2022-10-16T00:25:17;100840.25;;;14.20;84.86
51496;BME280;37572;52.094;4.870;2022-10-16T00:27:42;100839.28;;;14.14;85.30
51496;BME280;37572;52.094;4.870;2022-10-16T00:30:08;100840.38;;;14.25;84.32
51496;BME280;37572;52.094;4.870;2022-10-16T00:32:33;100852.50;;;14.34;84.00
51496;BME280;37572;52.094;4.870;2022-10-16T00:34:58;100845.91;;;14.30;83.47
51496;BME280;37572;52.094;4.870;2022-10-16T00:37:25;100843.13;;;14.49;83.88
51496;BME280;37572;52.094;4.870;2022-10-16T00:39:50;100849.69;;;14.41;83.86
51496;BME280;37572;52.094;4.870;2022-10-16T00:42:17;100845.34;;;14.40;83.72
51496;BME280;37572;52.094;4.870;2022-10-16T00:44:51;100842.88;;;14.50;84.04
51496;BME280;37572;52.094;4.870;2022-10-16T00:47:37;100833.66;;;14.51;83.36
51496;BME280;37572;52.094;4.870;2022-10-16T00:50:17;100843.94;;;14.49;84.38
51496;BME280;37572;52.094;4.870;2022-10-16T00:52:46;100839.44;;;14.31;84.64
51496;BME280;37572;52.094;4.870;2022-10-16T00:55:13;100836.38;;;14.51;83.82
51496;BME280;37572;52.094;4.870;2022-10-16T00:57:39;100840.63;;;14.59;84.05
51496;BME280;37572;52.094;4.870;2022-10-16T01:00:07;100842.06;;;14.61;83.86
51496;BME280;37572;52.094;4.870;2022-10-16T01:02:33;100841.13;;;14.68;83.72
51496;BME280;37572;52.094;4.870;2022-10-16T01:04:58;100844.56;;;14.75;83.89
51496;BME280;37572;52.094;4.870;2022-10-16T01:07:49;100850.53;;;14.65;84.41
51496;BME280;37572;52.094;4.870;2022-10-16T01:10:48;100843.56;;;14.57;85.06
51496;BME280;37572;52.094;4.870;2022-10-16T01:13:21;100844.75;;;14.50;85.33
51496;BME280;37572;52.094;4.870;2022-10-16T01:18:45;100826.84;;;14.49;85.83
51496;BME280;37572;52.094;4.870;2022-10-16T01:21:16;100828.25;;;14.51;86.18
51496;BME280;37572;52.094;4.870;2022-10-16T01:29:53;100835.56;;;14.51;87.39
51496;BME280;37572;52.094;4.870;2022-10-16T01:32:43;100839.22;;;14.56;87.92
51496;BME280;37572;52.094;4.870;2022-10-16T01:38:05;100844.41;;;14.46;88.74
51496;BME280;37572;52.094;4.870;2022-10-16T01:40:34;100842.03;;;14.50;88.99
51496;BME280;37572;52.094;4.870;2022-10-16T01:43:06;100851.44;;;14.47;89.49
51496;BME280;37572;52.094;4.870;2022-10-16T01:45:34;100858.66;;;14.41;89.98
51496;BME280;37572;52.094;4.870;2022-10-16T01:48:01;100860.06;;;14.32;90.80
51496;BME280;37572;52.094;4.870;2022-10-16T01:50:31;100862.25;;;14.23;90.88
51496;BME280;37572;52.094;4.870;2022-10-16T01:52:58;100866.53;;;14.31;90.92
51496;BME280;37572;52.094;4.870;2022-10-16T01:55:32;100856.25;;;14.33;90.56
51496;BME280;37572;52.094;4.870;2022-10-16T01:57:59;100862.47;;;14.10;91.28
51496;BME280;37572;52.094;4.870;2022-10-16T02:00:28;100852.38;;;14.17;91.04
51496;BME280;37572;52.094;4.870;2022-10-16T02:02:54;100852.94;;;14.19;91.04
51496;BME280;37572;52.094;4.870;2022-10-16T02:05:26;100858.00;;;14.16;91.32
51496;BME280;37572;52.094;4.870;2022-10-16T02:07:53;100853.28;;;14.11;91.04
51496;BME280;37572;52.094;4.870;2022-10-16T02:10:19;100867.75;;;14.05;91.58
51496;BME280;37572;52.094;4.870;2022-10-16T02:12:53;100867.28;;;14.08;91.26
51496;BME280;37572;52.094;4.870;2022-10-16T02:15:21;100879.88;;;14.02;91.84
51496;BME280;37572;52.094;4.870;2022-10-16T02:17:46;100873.41;;;14.03;91.90
51496;BME280;37572;52.094;4.870;2022-10-16T02:20:12;100883.03;;;13.99;91.74
51496;BME280;37572;52.094;4.870;2022-10-16T02:22:43;100882.09;;;13.94;91.99
51496;BME280;37572;52.094;4.870;2022-10-16T02:25:22;100881.03;;;13.95;92.38
51496;BME280;37572;52.094;4.870;2022-10-16T02:27:57;100873.19;;;14.05;91.96
51496;BME280;37572;52.094;4.870;2022-10-16T02:30:29;100878.53;;;13.93;92.39
51496;BME280;37572;52.094;4.870;2022-10-16T02:32:58;100878.94;;;13.97;92.37
51496;BME280;37572;52.094;4.870;2022-10-16T02:35:25;100876.41;;;13.83;92.91
51496;BME280;37572;52.094;4.870;2022-10-16T02:37:52;100884.88;;;13.87;93.27
51496;BME280;37572;52.094;4.870;2022-10-16T02:40:19;100883.38;;;13.91;92.64
51496;BME280;37572;52.094;4.870;2022-10-16T02:42:50;100884.75;;;13.82;93.44
51496;BME280;37572;52.094;4.870;2022-10-16T02:45:15;100884.19;;;13.91;92.64
51496;BME280;37572;52.094;4.870;2022-10-16T02:47:41;100888.69;;;13.98;92.92
51496;BME280;37572;52.094;4.870;2022-10-16T02:50:07;100889.16;;;13.95;93.30
51496;BME280;37572;52.094;4.870;2022-10-16T02:52:32;100887.28;;;13.95;93.28
51496;BME280;37572;52.094;4.870;2022-10-16T02:54:57;100886.78;;;13.86;93.72
51496;BME280;37572;52.094;4.870;2022-10-16T02:57:23;100876.47;;;13.95;93.57
51496;BME280;37572;52.094;4.870;2022-10-16T02:59:48;100879.16;;;13.95;93.09
51496;BME280;37572;52.094;4.870;2022-10-16T03:02:13;100879.50;;;13.99;93.34
51496;BME280;37572;52.094;4.870;2022-10-16T03:04:38;100871.84;;;13.96;93.37
51496;BME280;37572;52.094;4.870;2022-10-16T03:07:04;100868.78;;;13.92;93.35
51496;BME280;37572;52.094;4.870;2022-10-16T03:09:29;100866.16;;;13.85;94.08
51496;BME280;37572;52.094;4.870;2022-10-16T03:11:55;100859.13;;;13.84;94.20
51496;BME280;37572;52.094;4.870;2022-10-16T03:14:20;100868.13;;;13.78;94.08
51496;BME280;37572;52.094;4.870;2022-10-16T03:16:46;100881.59;;;13.85;93.83
51496;BME280;37572;52.094;4.870;2022-10-16T03:19:11;100879.34;;;13.82;93.90
51496;BME280;37572;52.094;4.870;2022-10-16T03:21:36;100885.00;;;13.80;94.20
51496;BME280;37572;52.094;4.870;2022-10-16T03:24:02;100882.69;;;13.65;94.60
51496;BME280;37572;52.094;4.870;2022-10-16T03:26:27;100905.44;;;13.76;94.71
51496;BME280;37572;52.094;4.870;2022-10-16T03:28:52;100910.31;;;13.86;94.49
51496;BME280;37572;52.094;4.870;2022-10-16T03:31:18;100910.25;;;13.74;94.90
51496;BME280;37572;52.094;4.870;2022-10-16T03:33:43;100907.22;;;13.82;93.94
51496;BME280;37572;52.094;4.870;2022-10-16T03:36:08;100910.72;;;13.71;94.81
51496;BME280;37572;52.094;4.870;2022-10-16T03:38:34;100910.03;;;13.76;94.65
51496;BME280;37572;52.094;4.870;2022-10-16T03:40:59;100915.44;;;13.76;94.73
51496;BME280;37572;52.094;4.870;2022-10-16T03:43:24;100920.00;;;13.75;94.92
51496;BME280;37572;52.094;4.870;2022-10-16T03:45:50;100922.81;;;13.68;95.20
51496;BME280;37572;52.094;4.870;2022-10-16T03:48:16;100916.25;;;13.76;95.10
51496;BME280;37572;52.094;4.870;2022-10-16T03:50:42;100919.56;;;13.78;95.08
51496;BME280;37572;52.094;4.870;2022-10-16T03:53:08;100920.19;;;13.80;94.92
51496;BME280;37572;52.094;4.870;2022-10-16T03:55:34;100924.31;;;13.83;95.06
51496;BME280;37572;52.094;4.870;2022-10-16T03:57:59;100932.84;;;13.80;95.02
51496;BME280;37572;52.094;4.870;2022-10-16T04:00:25;100922.03;;;13.80;94.94
51496;BME280;37572;52.094;4.870;2022-10-16T04:02:50;100932.84;;;13.80;95.02
51496;BME280;37572;52.094;4.870;2022-10-16T04:05:15;100930.78;;;13.82;95.17
51496;BME280;37572;52.094;4.870;2022-10-16T04:07:41;100937.63;;;13.84;95.25
51496;BME280;37572;52.094;4.870;2022-10-16T04:10:06;100941.13;;;13.85;95.09
51496;BME280;37572;52.094;4.870;2022-10-16T04:12:32;100938.66;;;13.83;95.12
51496;BME280;37572;52.094;4.870;2022-10-16T04:14:57;100937.69;;;13.78;95.36
51496;BME280;37572;52.094;4.870;2022-10-16T04:17:22;100942.63;;;13.81;95.03
51496;BME280;37572;52.094;4.870;2022-10-16T04:19:48;100945.44;;;13.74;95.80
51496;BME280;37572;52.094;4.870;2022-10-16T04:22:13;100947.16;;;13.68;95.34
51496;BME280;37572;52.094;4.870;2022-10-16T04:24:38;100948.66;;;13.64;96.15
51496;BME280;37572;52.094;4.870;2022-10-16T04:27:04;100958.69;;;13.64;96.01
51496;BME280;37572;52.094;4.870;2022-10-16T04:29:29;100957.00;;;13.63;95.96
51496;BME280;37572;52.094;4.870;2022-10-16T04:31:54;100956.72;;;13.71;95.96
51496;BME280;37572;52.094;4.870;2022-10-16T04:34:20;100967.56;;;13.71;95.96
51496;BME280;37572;52.094;4.870;2022-10-16T04:36:47;100969.28;;;13.65;96.48
51496;BME280;37572;52.094;4.870;2022-10-16T04:39:14;100962.88;;;13.60;96.52
51496;BME280;37572;52.094;4.870;2022-10-16T04:41:40;100963.28;;;13.63;96.59
51496;BME280;37572;52.094;4.870;2022-10-16T04:44:05;100962.13;;;13.71;96.51
51496;BME280;37572;52.094;4.870;2022-10-16T04:46:30;100979.41;;;13.70;96.71
51496;BME280;37572;52.094;4.870;2022-10-16T04:48:56;100979.31;;;13.77;96.47
51496;BME280;37572;52.094;4.870;2022-10-16T04:51:21;100989.09;;;13.78;96.36
51496;BME280;37572;52.094;4.870;2022-10-16T04:53:46;100995.56;;;13.77;96.44
51496;BME280;37572;52.094;4.870;2022-10-16T04:56:12;100993.31;;;13.73;96.51
51496;BME280;37572;52.094;4.870;2022-10-16T04:58:37;100996.94;;;13.67;96.94
51496;BME280;37572;52.094;4.870;2022-10-16T05:01:02;101005.81;;;13.74;96.45
51496;BME280;37572;52.094;4.870;2022-10-16T05:03:27;101016.75;;;13.80;96.55
51496;BME280;37572;52.094;4.870;2022-10-16T05:05:53;101025.50;;;13.82;96.41
51496;BME280;37572;52.094;4.870;2022-10-16T05:08:18;101025.41;;;13.88;96.11
51496;BME280;37572;52.094;4.870;2022-10-16T05:10:44;101030.91;;;13.82;96.31
51496;BME280;37572;52.094;4.870;2022-10-16T05:13:10;101028.22;;;13.82;96.46
51496;BME280;37572;52.094;4.870;2022-10-16T05:15:35;101036.25;;;13.88;96.04
51496;BME280;37572;52.094;4.870;2022-10-16T05:18:01;101040.41;;;13.91;95.75
51496;BME280;37572;52.094;4.870;2022-10-16T05:20:26;101037.47;;;13.93;95.58
51496;BME280;37572;52.094;4.870;2022-10-16T05:22:52;101043.91;;;13.91;95.61
51496;BME280;37572;52.094;4.870;2022-10-16T05:25:17;101046.84;;;13.90;96.08
51496;BME280;37572;52.094;4.870;2022-10-16T05:27:42;101042.97;;;13.86;96.08
51496;BME280;37572;52.094;4.870;2022-10-16T05:30:08;101052.03;;;13.91;96.05
51496;BME280;37572;52.094;4.870;2022-10-16T05:32:33;101053.94;;;13.91;95.89
51496;BME280;37572;52.094;4.870;2022-10-16T05:34:59;101049.09;;;13.93;95.75
51496;BME280;37572;52.094;4.870;2022-10-16T05:37:25;101066.41;;;13.92;95.72
51496;BME280;37572;52.094;4.870;2022-10-16T05:39:51;101065.13;;;13.95;95.98
51496;BME280;37572;52.094;4.870;2022-10-16T05:42:16;101071.84;;;13.92;96.28
51496;BME280;37572;52.094;4.870;2022-10-16T05:44:41;101069.94;;;13.93;96.54
51496;BME280;37572;52.094;4.870;2022-10-16T05:47:06;101074.31;;;13.94;96.28
51496;BME280;37572;52.094;4.870;2022-10-16T05:49:32;101078.66;;;13.95;96.51
51496;BME280;37572;52.094;4.870;2022-10-16T05:51:57;101086.94;;;14.00;95.78
51496;BME280;37572;52.094;4.870;2022-10-16T05:54:22;101082.22;;;13.95;96.08
51496;BME280;37572;52.094;4.870;2022-10-16T05:56:48;101085.44;;;13.85;97.29
51496;BME280;37572;52.094;4.870;2022-10-16T05:59:13;101090.63;;;13.87;97.21
51496;BME280;37572;52.094;4.870;2022-10-16T06:01:38;101087.31;;;13.85;97.76
51496;BME280;37572;52.094;4.870;2022-10-16T06:04:04;101092.72;;;13.85;97.69
51496;BME280;37572;52.094;4.870;2022-10-16T06:06:29;101087.38;;;13.78;98.61
51496;BME280;37572;52.094;4.870;2022-10-16T06:08:56;101093.41;;;13.80;98.36
51496;BME280;37572;52.094;4.870;2022-10-16T06:11:24;101083.03;;;13.77;98.65
51496;BME280;37572;52.094;4.870;2022-10-16T06:13:55;101087.34;;;13.60;99.84
51496;BME280;37572;52.094;4.870;2022-10-16T06:16:26;101093.97;;;13.64;100.00
51496;BME280;37572;52.094;4.870;2022-10-16T06:18:52;101099.63;;;13.62;100.00
51496;BME280;37572;52.094;4.870;2022-10-16T06:21:20;101099.69;;;13.55;100.00
51496;BME280;37572;52.094;4.870;2022-10-16T06:23:46;101096.13;;;13.55;100.00
51496;BME280;37572;52.094;4.870;2022-10-16T06:26:16;101097.72;;;13.63;100.00
51496;BME280;37572;52.094;4.870;2022-10-16T06:28:41;101095.88;;;13.63;100.00
51496;BME280;37572;52.094;4.870;2022-10-16T06:31:08;101110.22;;;13.64;100.00
51496;BME280;37572;52.094;4.870;2022-10-16T06:33:35;101115.63;;;13.64;100.00
51496;BME280;37572;52.094;4.870;2022-10-16T06:36:11;101116.78;;;13.74;99.62
51496;BME280;37572;52.094;4.870;2022-10-16T06:38:38;101114.06;;;13.74;99.82
51496;BME280;37572;52.094;4.870;2022-10-16T06:41:03;101114.50;;;13.71;100.00
51496;BME280;37572;52.094;4.870;2022-10-16T06:43:30;101114.13;;;13.68;99.66
51496;BME280;37572;52.094;4.870;2022-10-16T06:46:01;101109.84;;;13.60;98.89
51496;BME280;37572;52.094;4.870;2022-10-16T06:48:27;101115.72;;;13.76;98.37
51496;BME280;37572;52.094;4.870;2022-10-16T06:51:03;101124.66;;;13.76;97.40
51496;BME280;37572;52.094;4.870;2022-10-16T06:53:31;101121.69;;;13.84;96.26
51496;BME280;37572;52.094;4.870;2022-10-16T06:55:57;101123.28;;;13.92;95.27
51496;BME280;37572;52.094;4.870;2022-10-16T06:58:23;101134.03;;;13.99;94.21
51496;BME280;37572;52.094;4.870;2022-10-16T07:00:49;101139.59;;;14.04;93.77
51496;BME280;37572;52.094;4.870;2022-10-16T07:03:19;101145.00;;;14.04;92.90
51496;BME280;37572;52.094;4.870;2022-10-16T07:05:45;101163.94;;;14.04;92.44
51496;BME280;37572;52.094;4.870;2022-10-16T07:08:10;101160.28;;;14.17;92.25
51496;BME280;37572;52.094;4.870;2022-10-16T07:10:35;101157.13;;;14.20;92.19
51496;BME280;37572;52.094;4.870;2022-10-16T07:13:01;101169.16;;;14.24;92.06
51496;BME280;37572;52.094;4.870;2022-10-16T07:15:26;101175.78;;;14.28;92.03
51496;BME280;37572;52.094;4.870;2022-10-16T07:17:52;101182.41;;;14.32;92.35
51496;BME280;37572;52.094;4.870;2022-10-16T07:20:17;101181.19;;;14.28;92.97
51496;BME280;37572;52.094;4.870;2022-10-16T07:22:43;101184.59;;;14.23;93.22
51496;BME280;37572;52.094;4.870;2022-10-16T07:25:08;101196.47;;;14.22;93.54
51496;BME280;37572;52.094;4.870;2022-10-16T07:27:33;101194.38;;;14.24;94.07
51496;BME280;37572;52.094;4.870;2022-10-16T07:29:59;101213.78;;;14.21;94.06
51496;BME280;37572;52.094;4.870;2022-10-16T07:32:24;101214.75;;;14.27;94.04
51496;BME280;37572;52.094;4.870;2022-10-16T07:34:51;101219.25;;;14.15;93.80
51496;BME280;37572;52.094;4.870;2022-10-16T07:37:16;101221.97;;;14.33;93.42
51496;BME280;37572;52.094;4.870;2022-10-16T07:39:41;101232.53;;;14.41;93.30
51496;BME280;37572;52.094;4.870;2022-10-16T07:42:07;101236.84;;;14.49;93.20
51496;BME280;37572;52.094;4.870;2022-10-16T07:44:32;101246.72;;;14.62;93.22
51496;BME280;37572;52.094;4.870;2022-10-16T07:46:58;101250.91;;;14.58;93.38
51496;BME280;37572;52.094;4.870;2022-10-16T07:49:23;101250.63;;;14.66;93.78
51496;BME280;37572;52.094;4.870;2022-10-16T07:51:48;101255.16;;;14.72;93.46
51496;BME280;37572;52.094;4.870;2022-10-16T07:54:14;101259.06;;;14.76;93.80
51496;BME280;37572;52.094;4.870;2022-10-16T07:56:39;101255.59;;;14.69;93.78
51496;BME280;37572;52.094;4.870;2022-10-16T07:59:04;101256.72;;;14.80;93.79
51496;BME280;37572;52.094;4.870;2022-10-16T08:01:29;101267.66;;;14.92;93.11
51496;BME280;37572;52.094;4.870;2022-10-16T08:03:55;101267.78;;;14.97;93.09
51496;BME280;37572;52.094;4.870;2022-10-16T08:06:21;101281.03;;;15.05;93.14
51496;BME280;37572;52.094;4.870;2022-10-16T08:08:47;101282.16;;;15.16;92.46
51496;BME280;37572;52.094;4.870;2022-10-16T08:11:13;101289.38;;;15.22;92.14
51496;BME280;37572;52.094;4.870;2022-10-16T08:13:40;101291.41;;;15.27;91.74
51496;BME280;37572;52.094;4.870;2022-10-16T08:16:06;101297.03;;;15.44;91.63
51496;BME280;37572;52.094;4.870;2022-10-16T08:18:37;101300.22;;;15.52;91.06
51496;BME280;37572;52.094;4.870;2022-10-16T08:21:03;101301.81;;;15.72;90.93
51496;BME280;37572;52.094;4.870;2022-10-16T08:23:29;101303.56;;;15.85;90.17
51496;BME280;37572;52.094;4.870;2022-10-16T08:25:56;101307.44;;;15.89;89.19
51496;BME280;37572;52.094;4.870;2022-10-16T08:28:22;101304.19;;;15.68;88.80
51496;BME280;37572;52.094;4.870;2022-10-16T08:30:48;101311.69;;;15.85;88.85
51496;BME280;37572;52.094;4.870;2022-10-16T08:33:13;101302.94;;;15.83;88.55
51496;BME280;37572;52.094;4.870;2022-10-16T08:35:38;101308.97;;;15.85;88.47
51496;BME280;37572;52.094;4.870;2022-10-16T08:38:05;101323.41;;;16.09;87.96
51496;BME280;37572;52.094;4.870;2022-10-16T08:40:32;101318.47;;;16.18;87.33
51496;BME280;37572;52.094;4.870;2022-10-16T08:48:26;101342.59;;;16.62;85.48
51496;BME280;37572;52.094;4.870;2022-10-16T08:50:54;101347.91;;;16.92;85.07
51496;BME280;37572;52.094;4.870;2022-10-16T08:53:53;101360.91;;;17.02;83.46
51496;BME280;37572;52.094;4.870;2022-10-16T08:56:19;101353.78;;;17.13;83.21
51496;BME280;37572;52.094;4.870;2022-10-16T08:58:45;101352.28;;;17.05;82.87
51496;BME280;37572;52.094;4.870;2022-10-16T09:01:14;101358.41;;;17.12;82.48
51496;BME280;37572;52.094;4.870;2022-10-16T09:04:09;101366.44;;;17.19;82.14
51496;BME280;37572;52.094;4.870;2022-10-16T09:06:54;101364.28;;;17.21;81.58
51496;BME280;37572;52.094;4.870;2022-10-16T09:11:52;101375.31;;;17.26;81.47
51496;BME280;37572;52.094;4.870;2022-10-16T09:20:19;101382.69;;;17.42;80.00
51496;BME280;37572;52.094;4.870;2022-10-16T09:22:44;101394.78;;;17.35;79.40
51496;BME280;37572;52.094;4.870;2022-10-16T09:25:15;101395.25;;;17.43;79.95
51496;BME280;37572;52.094;4.870;2022-10-16T09:27:42;101392.19;;;17.69;79.67
51496;BME280;37572;52.094;4.870;2022-10-16T09:30:17;101396.13;;;17.61;79.12
51496;BME280;37572;52.094;4.870;2022-10-16T09:32:45;101400.34;;;17.69;78.93
51496;BME280;37572;52.094;4.870;2022-10-16T09:35:24;101411.13;;;17.75;78.05
51496;BME280;37572;52.094;4.870;2022-10-16T09:37:54;101394.50;;;17.89;78.29
51496;BME280;37572;52.094;4.870;2022-10-16T09:40:38;101390.50;;;17.79;75.87
51496;BME280;37572;52.094;4.870;2022-10-16T09:45:57;101400.81;;;18.06;77.08
51496;BME280;37572;52.094;4.870;2022-10-16T09:48:25;101401.53;;;18.02;76.69
51496;BME280;37572;52.094;4.870;2022-10-16T09:51:00;101401.19;;;17.69;77.15
51496;BME280;37572;52.094;4.870;2022-10-16T09:53:43;101402.34;;;17.44;77.48
51496;BME280;37572;52.094;4.870;2022-10-16T09:56:11;101407.56;;;17.46;77.60
51496;BME280;37572;52.094;4.870;2022-10-16T09:58:42;101399.47;;;17.51;77.79
51496;BME280;37572;52.094;4.870;2022-10-16T10:01:13;101413.47;;;17.72;78.08
51496;BME280;37572;52.094;4.870;2022-10-16T10:03:41;101408.84;;;17.84;78.14
51496;BME280;37572;52.094;4.870;2022-10-16T10:06:17;101412.50;;;17.90;77.18
51496;BME280;37572;52.094;4.870;2022-10-16T10:11:48;101418.16;;;18.17;76.19
51496;BME280;37572;52.094;4.870;2022-10-16T10:14:21;101409.44;;;18.49;75.76
51496;BME280;37572;52.094;4.870;2022-10-16T10:16:48;101428.69;;;18.93;74.87
51496;BME280;37572;52.094;4.870;2022-10-16T10:19:19;101419.00;;;19.02;72.09
51496;BME280;37572;52.094;4.870;2022-10-16T10:21:45;101425.97;;;18.93;71.53
51496;BME280;37572;52.094;4.870;2022-10-16T10:24:15;101430.94;;;19.18;70.32
51496;BME280;37572;52.094;4.870;2022-10-16T10:26:49;101427.69;;;18.82;69.99
51496;BME280;37572;52.094;4.870;2022-10-16T10:29:37;101438.34;;;18.84;70.56
51496;BME280;37572;52.094;4.870;2022-10-16T10:32:23;101445.94;;;18.82;69.61
51496;BME280;37572;52.094;4.870;2022-10-16T10:35:07;101451.91;;;18.96;71.00
51496;BME280;37572;52.094;4.870;2022-10-16T10:38:05;101444.06;;;19.21;69.99
51496;BME280;37572;52.094;4.870;2022-10-16T10:40:43;101449.72;;;19.15;68.27
51496;BME280;37572;52.094;4.870;2022-10-16T10:45:48;101458.69;;;18.76;70.56
51496;BME280;37572;52.094;4.870;2022-10-16T10:59:23;101469.88;;;19.75;65.73
51496;BME280;37572;52.094;4.870;2022-10-16T11:02:14;101478.56;;;20.16;64.57
51496;BME280;37572;52.094;4.870;2022-10-16T11:08:00;101475.59;;;20.50;57.47
51496;BME280;37572;52.094;4.870;2022-10-16T11:10:32;101465.78;;;20.54;55.54
51496;BME280;37572;52.094;4.870;2022-10-16T11:13:23;101482.38;;;20.75;56.17
51496;BME280;37572;52.094;4.870;2022-10-16T11:15:54;101475.75;;;21.03;56.40
51496;BME280;37572;52.094;4.870;2022-10-16T11:18:26;101492.34;;;21.29;55.75
51496;BME280;37572;52.094;4.870;2022-10-16T11:21:02;101487.16;;;21.32;52.99
51496;BME280;37572;52.094;4.870;2022-10-16T11:23:40;101485.75;;;21.25;53.18
51496;BME280;37572;52.094;4.870;2022-10-16T11:26:15;101491.03;;;21.36;52.71
51496;BME280;37572;52.094;4.870;2022-10-16T11:28:51;101495.72;;;21.46;52.79
51496;BME280;37572;52.094;4.870;2022-10-16T11:31:27;101493.28;;;21.50;51.71
51496;BME280;37572;52.094;4.870;2022-10-16T11:39:30;101510.47;;;22.03;49.63
51496;BME280;37572;52.094;4.870;2022-10-16T11:42:02;101513.00;;;22.15;47.47
51496;BME280;37572;52.094;4.870;2022-10-16T11:44:53;101510.22;;;22.00;47.96
51496;BME280;37572;52.094;4.870;2022-10-16T11:50:21;101513.34;;;22.44;47.48
51496;BME280;37572;52.094;4.870;2022-10-16T11:55:35;101511.09;;;23.39;45.16
51496;BME280;37572;52.094;4.870;2022-10-16T11:58:05;101515.34;;;23.86;44.21
51496;BME280;37572;52.094;4.870;2022-10-16T12:08:28;101524.94;;;25.37;40.70
51496;BME280;37572;52.094;4.870;2022-10-16T12:11:06;101534.38;;;26.04;37.91
51496;BME280;37572;52.094;4.870;2022-10-16T12:13:35;101533.84;;;26.02;36.53
51496;BME280;37572;52.094;4.870;2022-10-16T12:16:21;101539.28;;;27.44;35.19
51496;BME280;37572;52.094;4.870;2022-10-16T12:18:47;101540.69;;;28.10;32.19
51496;BME280;37572;52.094;4.870;2022-10-16T12:21:14;101546.13;;;28.38;31.42
51496;BME280;37572;52.094;4.870;2022-10-16T12:23:55;101543.66;;;29.27;31.21
51496;BME280;37572;52.094;4.870;2022-10-16T12:26:25;101550.81;;;30.44;29.55
51496;BME280;37572;52.094;4.870;2022-10-16T12:28:52;101547.78;;;31.87;28.21
51496;BME280;37572;52.094;4.870;2022-10-16T12:31:17;101550.59;;;33.30;26.85
51496;BME280;37572;52.094;4.870;2022-10-16T12:33:56;101549.72;;;34.16;25.11
51496;BME280;37572;52.094;4.870;2022-10-16T12:36:34;101546.28;;;33.32;25.42
51496;BME280;37572;52.094;4.870;2022-10-16T12:39:00;101539.88;;;33.19;25.91
51496;BME280;37572;52.094;4.870;2022-10-16T12:41:34;101536.16;;;32.06;27.52
51496;BME280;37572;52.094;4.870;2022-10-16T12:44:01;101545.69;;;30.72;28.29
51496;BME280;37572;52.094;4.870;2022-10-16T12:51:37;101526.69;;;28.52;33.50
51496;BME280;37572;52.094;4.870;2022-10-16T12:56:43;101517.28;;;26.21;37.20
51496;BME280;37572;52.094;4.870;2022-10-16T13:16:50;101530.25;;;21.05;49.74
51496;BME280;37572;52.094;4.870;2022-10-16T13:19:45;101535.28;;;20.85;50.06
51496;BME280;37572;52.094;4.870;2022-10-16T13:24:57;101535.31;;;20.58;51.13
51496;BME280;37572;52.094;4.870;2022-10-16T13:27:56;101538.41;;;20.40;51.67
51496;BME280;37572;52.094;4.870;2022-10-16T13:30:24;101558.06;;;20.37;51.47
51496;BME280;37572;52.094;4.870;2022-10-16T13:33:57;101556.56;;;20.24;50.62
51496;BME280;37572;52.094;4.870;2022-10-16T13:35:53;101553.19;;;19.89;50.81
51496;BME280;37572;52.094;4.870;2022-10-16T13:38:21;101555.41;;;19.92;51.82
51496;BME280;37572;52.094;4.870;2022-10-16T13:41:02;101554.50;;;19.87;53.37
51496;BME280;37572;52.094;4.870;2022-10-16T13:43:43;101556.41;;;19.69;53.28
51496;BME280;37572;52.094;4.870;2022-10-16T13:46:18;101559.50;;;19.73;52.54
51496;BME280;37572;52.094;4.870;2022-10-16T13:48:55;101563.81;;;19.69;53.20
51496;BME280;37572;52.094;4.870;2022-10-16T13:51:20;101558.84;;;19.66;53.55
51496;BME280;37572;52.094;4.870;2022-10-16T13:53:46;101559.56;;;19.39;54.57
51496;BME280;37572;52.094;4.870;2022-10-16T13:56:18;101557.94;;;19.21;54.82
51496;BME280;37572;52.094;4.870;2022-10-16T13:58:43;101571.66;;;19.09;54.89
51496;BME280;37572;52.094;4.870;2022-10-16T14:01:16;101562.97;;;19.12;55.03
51496;BME280;37572;52.094;4.870;2022-10-16T14:03:43;101556.28;;;19.03;56.04
51496;BME280;37572;52.094;4.870;2022-10-16T14:06:17;101567.63;;;19.12;55.61
51496;BME280;37572;52.094;4.870;2022-10-16T14:08:49;101555.94;;;19.16;56.75
51496;BME280;37572;52.094;4.870;2022-10-16T14:11:24;101565.97;;;18.94;57.82
51496;BME280;37572;52.094;4.870;2022-10-16T14:13:50;101557.69;;;19.05;57.46
51496;BME280;37572;52.094;4.870;2022-10-16T14:16:18;101551.31;;;19.00;57.73
51496;BME280;37572;52.094;4.870;2022-10-16T14:19:05;101541.06;;;18.90;58.33
51496;BME280;37572;52.094;4.870;2022-10-16T14:21:32;101544.13;;;18.94;57.06
51496;BME280;37572;52.094;4.870;2022-10-16T14:23:58;101549.66;;;18.99;56.93
51496;BME280;37572;52.094;4.870;2022-10-16T14:26:26;101545.41;;;18.74;57.70
51496;BME280;37572;52.094;4.870;2022-10-16T14:29:12;101550.97;;;18.79;58.33
51496;BME280;37572;52.094;4.870;2022-10-16T14:31:38;101558.53;;;18.77;58.47
51496;BME280;37572;52.094;4.870;2022-10-16T14:34:23;101555.00;;;18.77;58.30
51496;BME280;37572;52.094;4.870;2022-10-16T14:36:49;101549.13;;;18.68;62.83